createdAt,value
2018-10-04T00:00:29.614Z,10.00
2018-10-04T00:02:34.522Z,9.07
2018-10-04T00:04:39.604Z,9.00
2018-10-04T00:06:44.507Z,8.20
2018-10-04T00:08:50.427Z,8.33
2018-10-04T00:10:56.090Z,9.03
2018-10-04T00:13:01.601Z,7.10
2018-10-04T00:15:07.384Z,9.77
2018-10-04T00:17:12.918Z,7.87
2018-10-04T00:19:19.437Z,8.37
2018-10-04T00:21:24.377Z,8.83
2018-10-04T00:23:30.125Z,7.20
2018-10-04T00:25:35.164Z,8.10
2018-10-04T00:27:40.445Z,8.50
2018-10-04T00:29:45.814Z,8.40
2018-10-04T00:31:51.628Z,12.43
2018-10-04T00:33:57.264Z,7.77
2018-10-04T00:36:02.681Z,8.93
2018-10-04T00:38:07.981Z,7.40
2018-10-04T00:40:13.217Z,6.93
2018-10-04T00:42:20.105Z,6.03
2018-10-04T00:44:25.442Z,4.17
2018-10-04T00:46:31.691Z,7.67
2018-10-04T00:48:36.915Z,8.33
2018-10-04T00:50:42.343Z,6.70
2018-10-04T00:52:51.540Z,7.53
2018-10-04T00:54:56.766Z,5.47
2018-10-04T00:57:02.002Z,5.47
2018-10-04T00:59:07.649Z,5.20
2018-10-04T01:01:13.176Z,8.13
2018-10-04T01:03:18.468Z,7.47
2018-10-04T01:05:24.065Z,7.60
2018-10-04T01:07:29.228Z,7.60
2018-10-04T01:09:34.704Z,7.03
2018-10-04T01:11:40.202Z,5.80
2018-10-04T01:13:45.425Z,8.73
2018-10-04T01:15:52.406Z,8.27
2018-10-04T01:17:57.561Z,5.13
2018-10-04T01:20:02.997Z,6.73
2018-10-04T01:22:08.256Z,4.53
2018-10-04T01:24:13.499Z,5.97
2018-10-04T01:26:18.928Z,6.93
2018-10-04T01:28:24.487Z,5.40
2018-10-04T01:30:29.583Z,6.23
2018-10-04T01:32:35.261Z,6.80
2018-10-04T01:34:41.590Z,7.23
2018-10-04T01:36:48.562Z,5.97
2018-10-04T01:38:53.908Z,6.37
2018-10-04T01:40:59.792Z,11.77
2018-10-04T01:43:05.242Z,11.10
2018-10-04T01:45:10.745Z,6.30
2018-10-04T01:47:16.035Z,6.60
2018-10-04T01:49:21.523Z,6.20
2018-10-04T01:51:26.966Z,5.57
2018-10-04T01:53:32.366Z,5.80
2018-10-04T01:55:37.974Z,4.53
2018-10-04T01:57:43.346Z,4.30
2018-10-04T01:59:48.794Z,5.10
2018-10-04T02:01:54.315Z,5.40
2018-10-04T02:03:59.642Z,7.03
2018-10-04T02:06:05.271Z,5.47
2018-10-04T02:08:11.174Z,5.03
2018-10-04T02:10:16.355Z,4.30
2018-10-04T02:12:22.038Z,4.87
2018-10-04T02:14:27.661Z,5.60
2018-10-04T02:16:32.864Z,4.63
2018-10-04T02:18:38.262Z,4.60
2018-10-04T02:20:43.397Z,4.10
2018-10-04T02:22:48.835Z,5.00
2018-10-04T02:24:54.044Z,4.33
2018-10-04T02:26:59.516Z,6.03
2018-10-04T02:29:04.957Z,4.43
2018-10-04T02:31:10.493Z,7.07
2018-10-04T02:33:16.322Z,4.40
2018-10-04T02:35:21.745Z,5.97
2018-10-04T02:37:26.976Z,4.53
2018-10-04T02:39:32.399Z,5.70
2018-10-04T02:41:37.898Z,5.30
2018-10-04T02:43:43.263Z,5.87
2018-10-04T02:45:48.414Z,3.43
2018-10-04T02:47:53.886Z,4.80
2018-10-04T02:49:59.533Z,11.60
2018-10-04T02:52:04.920Z,5.53
2018-10-04T02:54:11.133Z,6.07
2018-10-04T02:56:20.133Z,4.03
2018-10-04T02:58:26.093Z,4.83
2018-10-04T03:00:32.992Z,4.77
2018-10-04T03:02:38.223Z,5.63
2018-10-04T03:04:43.672Z,5.50
2018-10-04T03:06:49.384Z,4.43
2018-10-04T03:08:54.687Z,3.30
2018-10-04T03:11:00.111Z,4.77
2018-10-04T03:13:05.472Z,4.80
2018-10-04T03:15:11.136Z,4.90
2018-10-04T03:17:16.441Z,5.00
2018-10-04T03:19:21.929Z,4.50
2018-10-04T03:21:27.454Z,4.23
2018-10-04T03:23:32.881Z,4.10
2018-10-04T03:25:38.204Z,4.27
2018-10-04T03:27:43.791Z,4.90
2018-10-04T03:29:48.649Z,3.40
2018-10-04T03:31:54.681Z,3.30
2018-10-04T03:34:00.292Z,5.07
2018-10-04T03:36:05.321Z,3.37
2018-10-04T03:38:11.078Z,4.17
2018-10-04T03:40:16.333Z,3.30
2018-10-04T03:42:21.907Z,3.60
2018-10-04T03:44:27.487Z,5.00
2018-10-04T03:46:32.891Z,3.90
2018-10-04T03:48:38.625Z,3.93
2018-10-04T03:50:44.440Z,4.23
2018-10-04T03:52:50.244Z,6.20
2018-10-04T03:54:55.614Z,3.23
2018-10-04T03:57:01.049Z,4.30
2018-10-04T03:59:06.253Z,4.00
2018-10-04T04:01:11.624Z,4.20
2018-10-04T04:03:17.920Z,4.30
2018-10-04T04:05:23.171Z,3.87
2018-10-04T04:07:28.313Z,4.23
2018-10-04T04:09:33.785Z,4.23
2018-10-04T04:11:39.022Z,4.20
2018-10-04T04:13:44.163Z,4.03
2018-10-04T04:15:49.651Z,5.10
2018-10-04T04:17:54.824Z,4.80
2018-10-04T04:20:00.418Z,4.03
2018-10-04T04:22:06.018Z,3.90
2018-10-04T04:24:11.434Z,4.33
2018-10-04T04:26:16.830Z,3.37
2018-10-04T04:28:22.069Z,4.00
2018-10-04T04:30:27.891Z,4.53
2018-10-04T04:32:34.137Z,4.20
2018-10-04T04:34:39.486Z,5.63
2018-10-04T04:36:44.779Z,4.27
2018-10-04T04:38:50.382Z,4.00
2018-10-04T04:40:55.622Z,4.20
2018-10-04T04:43:00.835Z,3.10
2018-10-04T04:45:06.421Z,4.67
2018-10-04T04:47:11.817Z,3.70
2018-10-04T04:49:18.157Z,4.00
2018-10-04T04:51:23.712Z,4.60
2018-10-04T04:53:29.144Z,4.33
2018-10-04T04:55:37.721Z,6.00
2018-10-04T04:57:42.850Z,3.67
2018-10-04T04:59:48.332Z,6.43
2018-10-04T05:01:53.945Z,4.03
2018-10-04T05:03:59.366Z,3.80
2018-10-04T05:06:05.202Z,4.20
2018-10-04T05:08:11.877Z,3.70
2018-10-04T05:10:17.694Z,3.00
2018-10-04T05:12:23.323Z,3.60
2018-10-04T05:14:28.139Z,3.60
2018-10-04T05:16:33.021Z,3.23
2018-10-04T05:18:38.757Z,3.40
2018-10-04T05:20:44.186Z,4.27
2018-10-04T05:22:49.359Z,4.17
2018-10-04T05:24:54.676Z,3.73
2018-10-04T05:26:59.777Z,3.27
2018-10-04T05:29:05.150Z,3.80
2018-10-04T05:31:10.799Z,3.60
2018-10-04T05:33:16.001Z,3.97
2018-10-04T05:35:21.457Z,3.47
2018-10-04T05:37:26.918Z,4.23
2018-10-04T05:39:32.310Z,3.67
2018-10-04T05:41:37.660Z,3.47
2018-10-04T05:43:43.238Z,2.93
2018-10-04T05:45:48.669Z,4.47
2018-10-04T05:47:54.101Z,3.50
2018-10-04T05:49:59.224Z,2.93
2018-10-04T05:52:04.581Z,3.97
2018-10-04T05:54:10.230Z,4.93
2018-10-04T05:56:15.880Z,2.87
2018-10-04T05:58:21.291Z,3.87
2018-10-04T06:00:26.543Z,3.10
2018-10-04T06:02:32.172Z,3.80
2018-10-04T06:04:37.264Z,2.73
2018-10-04T06:06:43.107Z,3.50
2018-10-04T06:08:48.879Z,2.90
2018-10-04T06:10:54.080Z,2.67
2018-10-04T06:12:59.741Z,3.00
2018-10-04T06:15:05.019Z,4.13
2018-10-04T06:17:10.505Z,3.50
2018-10-04T06:19:15.821Z,3.50
2018-10-04T06:21:21.181Z,3.43
2018-10-04T06:23:26.500Z,3.50
2018-10-04T06:25:32.051Z,3.27
2018-10-04T06:27:37.477Z,3.20
2018-10-04T06:29:43.252Z,3.33
2018-10-04T06:31:48.666Z,2.50
2018-10-04T06:33:54.026Z,3.27
2018-10-04T06:35:59.950Z,3.13
2018-10-04T06:38:05.721Z,3.07
2018-10-04T06:40:10.934Z,3.47
2018-10-04T06:42:16.423Z,5.77
2018-10-04T06:44:21.873Z,3.03
2018-10-04T06:46:27.130Z,2.63
2018-10-04T06:48:32.592Z,3.00
2018-10-04T06:50:38.076Z,2.87
2018-10-04T06:52:43.527Z,2.90
2018-10-04T06:54:48.511Z,2.90
2018-10-04T06:56:53.824Z,3.10
2018-10-04T06:58:59.505Z,2.70
2018-10-04T07:01:05.219Z,2.87
2018-10-04T07:03:10.275Z,3.00
2018-10-04T07:05:16.122Z,3.20
2018-10-04T07:07:21.549Z,3.00
2018-10-04T07:09:26.781Z,2.70
2018-10-04T07:11:32.617Z,3.13
2018-10-04T07:13:38.867Z,3.07
2018-10-04T07:15:44.888Z,2.80
2018-10-04T07:17:50.767Z,2.80
2018-10-04T07:19:56.829Z,3.13
2018-10-04T07:22:02.340Z,2.40
2018-10-04T07:24:08.068Z,3.03
2018-10-04T07:26:14.165Z,2.77
2018-10-04T07:28:20.414Z,2.47
2018-10-04T07:30:26.262Z,2.37
2018-10-04T07:32:31.596Z,2.63
2018-10-04T07:34:37.038Z,3.80
2018-10-04T07:36:42.696Z,2.63
2018-10-04T07:38:48.206Z,2.77
2018-10-04T07:40:53.745Z,2.40
2018-10-04T07:42:59.346Z,3.80
2018-10-04T07:45:05.474Z,2.50
2018-10-04T07:47:10.762Z,2.30
2018-10-04T07:49:16.154Z,2.03
2018-10-04T07:51:22.118Z,3.20
2018-10-04T07:53:27.267Z,2.97
2018-10-04T07:55:32.588Z,2.40
2018-10-04T07:57:37.923Z,2.37
2018-10-04T07:59:43.262Z,2.60
2018-10-04T08:01:48.995Z,2.63
2018-10-04T08:03:54.245Z,2.30
2018-10-04T08:05:59.676Z,2.43
2018-10-04T08:08:05.562Z,2.40
2018-10-04T08:10:10.508Z,3.27
2018-10-04T08:12:15.940Z,3.70
2018-10-04T08:14:21.023Z,2.50
2018-10-04T08:16:26.461Z,3.00
2018-10-04T08:18:32.391Z,2.50
2018-10-04T08:20:37.576Z,2.40
2018-10-04T08:22:43.428Z,2.37
2018-10-04T08:24:49.564Z,2.37
2018-10-04T08:26:55.216Z,2.90
2018-10-04T08:29:01.405Z,2.00
2018-10-04T08:33:27.016Z,2.60
2018-10-04T08:35:32.240Z,4.97
2018-10-04T08:37:37.585Z,5.53
2018-10-04T08:39:43.073Z,9.43
2018-10-04T08:41:48.239Z,4.50
2018-10-04T08:43:54.616Z,5.70
2018-10-04T08:46:00.100Z,4.90
2018-10-04T08:48:05.195Z,7.13
2018-10-04T08:50:10.678Z,4.90
2018-10-04T08:52:20.601Z,5.33
2018-10-04T08:54:29.853Z,4.53
2018-10-04T08:56:35.574Z,3.73
2018-10-04T08:58:44.280Z,3.90
2018-10-04T09:00:50.142Z,4.33
2018-10-04T09:02:55.597Z,3.67
2018-10-04T09:05:00.858Z,4.87
2018-10-04T09:07:06.558Z,3.17
2018-10-04T09:09:12.039Z,5.57
2018-10-04T09:11:17.269Z,3.73
2018-10-04T09:13:22.777Z,3.80
2018-10-04T09:15:28.423Z,4.03
2018-10-04T09:17:34.241Z,3.20
2018-10-04T09:19:40.126Z,3.30
2018-10-04T09:21:45.551Z,2.90
2018-10-04T09:23:50.788Z,3.00
2018-10-04T09:25:56.032Z,3.73
2018-10-04T09:28:01.166Z,4.07
2018-10-04T09:30:10.686Z,3.30
2018-10-04T09:32:16.491Z,4.03
2018-10-04T09:34:21.611Z,6.40
2018-10-04T09:36:26.713Z,4.20
2018-10-04T09:38:32.466Z,3.30
2018-10-04T09:40:38.290Z,3.60
2018-10-04T09:42:44.981Z,3.20
2018-10-04T09:44:50.294Z,3.27
2018-10-04T09:46:55.610Z,3.33
2018-10-04T09:49:00.804Z,4.10
2018-10-04T09:51:10.531Z,3.10
2018-10-04T09:53:16.359Z,3.00
2018-10-04T09:55:21.733Z,3.17
2018-10-04T09:57:31.111Z,3.73
2018-10-04T09:59:36.408Z,3.17
2018-10-04T10:02:16.348Z,2.63
2018-10-04T10:04:22.706Z,3.40
2018-10-04T10:06:29.005Z,3.40
2018-10-04T10:08:34.628Z,3.90
2018-10-04T10:10:39.967Z,3.53
2018-10-04T10:12:46.828Z,3.53
2018-10-04T10:14:52.297Z,3.37
2018-10-04T10:16:57.850Z,3.73
2018-10-04T10:19:04.047Z,3.50
2018-10-04T10:21:10.295Z,3.37
2018-10-04T10:23:16.726Z,3.27
2018-10-04T10:25:22.030Z,5.80
2018-10-04T10:27:27.236Z,3.97
2018-10-04T10:29:33.267Z,4.33
2018-10-04T10:31:40.561Z,4.37
2018-10-04T10:33:47.138Z,4.23
2018-10-04T10:35:53.006Z,3.03
2018-10-04T10:37:58.792Z,3.80
2018-10-04T10:40:04.932Z,2.90
2018-10-04T10:42:12.261Z,3.80
2018-10-04T10:44:17.517Z,4.67
2018-10-04T10:46:23.244Z,5.50
2018-10-04T10:48:29.369Z,3.50
2018-10-04T10:50:35.374Z,6.23
2018-10-04T10:52:41.991Z,5.83
2018-10-04T10:54:47.738Z,6.27
2018-10-04T10:56:53.602Z,4.53
2018-10-04T10:58:59.289Z,4.07
2018-10-04T11:01:05.098Z,5.03
2018-10-04T11:03:10.865Z,5.50
2018-10-04T11:05:16.540Z,7.67
2018-10-04T11:07:22.081Z,7.93
2018-10-04T11:09:27.646Z,9.03
2018-10-04T11:11:33.060Z,11.10
2018-10-04T11:13:38.819Z,6.23
2018-10-04T11:15:44.289Z,7.77
2018-10-04T11:17:49.439Z,5.30
2018-10-04T11:19:54.719Z,5.20
2018-10-04T11:22:00.168Z,6.60
2018-10-04T11:24:05.449Z,11.60
2018-10-04T11:26:10.445Z,6.47
2018-10-04T11:28:15.938Z,6.93
2018-10-04T11:30:21.094Z,7.07
2018-10-04T11:32:26.622Z,8.47
2018-10-04T11:34:32.680Z,8.27
2018-10-04T11:36:39.657Z,13.60
2018-10-04T11:38:45.761Z,9.13
2018-10-04T11:40:51.552Z,10.13
2018-10-04T11:42:58.523Z,5.33
2018-10-04T11:45:06.603Z,7.33
2018-10-04T11:47:15.243Z,9.77
2018-10-04T11:49:21.017Z,8.10
2018-10-04T11:51:25.789Z,12.23
2018-10-04T11:53:30.993Z,8.23
2018-10-04T11:55:36.057Z,12.33
2018-10-04T11:57:40.901Z,6.67
2018-10-04T11:59:45.867Z,8.50
2018-10-04T12:01:51.672Z,12.20
2018-10-04T12:03:57.793Z,7.20
2018-10-04T12:06:03.367Z,7.17
2018-10-04T12:08:08.924Z,7.67
2018-10-04T12:10:14.340Z,8.47
2018-10-04T12:12:19.580Z,7.63
2018-10-04T12:14:24.870Z,7.80
2018-10-04T12:16:30.590Z,9.43
2018-10-04T12:18:36.089Z,6.20
2018-10-04T12:20:41.643Z,7.57
2018-10-04T12:22:46.796Z,14.83
2018-10-04T12:24:52.430Z,4.43
2018-10-04T12:26:58.244Z,10.27
2018-10-04T12:29:05.621Z,8.00
2018-10-04T12:31:11.416Z,9.20
2018-10-04T12:33:16.872Z,7.50
2018-10-04T12:35:22.719Z,9.30
2018-10-04T12:37:27.887Z,6.13
2018-10-04T12:39:33.607Z,9.20
2018-10-04T12:41:39.134Z,6.00
2018-10-04T12:43:44.203Z,5.17
2018-10-04T12:45:50.772Z,8.13
2018-10-04T12:47:56.013Z,5.07
2018-10-04T12:50:01.391Z,7.53
2018-10-04T12:52:06.835Z,7.70
2018-10-04T12:54:13.441Z,5.90
2018-10-04T12:56:20.021Z,6.30
2018-10-04T12:58:25.360Z,5.30
2018-10-04T13:00:31.141Z,5.10
2018-10-04T13:02:36.584Z,7.57
2018-10-04T13:04:42.258Z,4.60
2018-10-04T13:06:49.326Z,4.47
2018-10-04T13:08:54.927Z,4.40
2018-10-04T13:11:00.366Z,5.60
2018-10-04T13:13:06.021Z,4.57
2018-10-04T13:15:11.665Z,7.23
2018-10-04T13:17:17.038Z,4.70
2018-10-04T13:19:22.412Z,7.17
2018-10-04T13:21:27.892Z,14.20
2018-10-04T13:23:33.425Z,18.73
2018-10-04T13:25:39.344Z,19.33
2018-10-04T13:27:44.798Z,24.50
2018-10-04T13:29:50.327Z,17.90
2018-10-04T13:31:55.607Z,19.73
2018-10-04T13:34:05.317Z,24.77
2018-10-04T13:36:11.102Z,28.73
2018-10-04T13:38:16.758Z,26.87
2018-10-04T13:40:22.114Z,32.40
2018-10-04T13:42:27.614Z,25.93
2018-10-04T13:44:33.087Z,30.73
2018-10-04T13:46:39.021Z,35.37
2018-10-04T13:48:44.372Z,32.57
2018-10-04T13:50:49.760Z,30.53
2018-10-04T13:52:55.120Z,25.27
2018-10-04T13:55:00.756Z,26.20
2018-10-04T13:57:05.968Z,33.90
2018-10-04T13:59:11.595Z,33.03
2018-10-04T14:01:17.137Z,29.60
2018-10-04T14:03:22.264Z,31.67
2018-10-04T14:05:27.924Z,30.57
2018-10-04T14:07:33.255Z,28.40
2018-10-04T14:09:38.632Z,38.57
2018-10-04T14:11:43.933Z,33.60
2018-10-04T14:13:49.607Z,25.17
2018-10-04T14:15:54.799Z,30.90
2018-10-04T14:18:00.256Z,30.43
2018-10-04T14:20:05.650Z,27.93
2018-10-04T14:22:11.202Z,29.40
2018-10-04T14:24:16.502Z,30.67
2018-10-04T14:26:22.107Z,28.73
2018-10-04T14:28:27.667Z,29.03
2018-10-04T14:30:32.602Z,26.33
2018-10-04T14:32:37.868Z,25.93
2018-10-04T14:34:43.460Z,28.00
2018-10-04T14:36:48.717Z,34.23
2018-10-04T14:38:54.106Z,35.07
2018-10-04T14:40:59.554Z,27.40
2018-10-04T14:43:05.015Z,34.43
2018-10-04T14:45:10.674Z,33.30
2018-10-04T14:47:16.261Z,31.10
2018-10-04T14:49:22.131Z,22.33
2018-10-04T14:51:27.529Z,26.30
2018-10-04T14:53:33.233Z,27.17
2018-10-04T14:55:38.449Z,24.37
2018-10-04T14:57:43.757Z,24.60
2018-10-04T14:59:49.120Z,25.97
2018-10-04T15:01:55.258Z,28.53
2018-10-04T15:04:00.625Z,29.60
2018-10-04T15:06:06.103Z,22.73
2018-10-04T15:08:11.492Z,22.83
2018-10-04T15:10:17.032Z,25.10
2018-10-04T15:12:22.633Z,19.57
2018-10-04T15:14:27.878Z,23.20
2018-10-04T15:16:33.560Z,21.37
2018-10-04T15:18:38.996Z,27.57
2018-10-04T15:20:44.395Z,25.57
2018-10-04T15:22:49.729Z,21.17
2018-10-04T15:24:54.815Z,23.50
2018-10-04T15:27:00.420Z,23.50
2018-10-04T15:29:05.526Z,19.43
2018-10-04T15:31:10.995Z,24.20
2018-10-04T15:33:16.004Z,21.67
2018-10-04T15:35:21.480Z,20.40
2018-10-04T15:37:26.888Z,18.00
2018-10-04T15:39:32.060Z,18.80
2018-10-04T15:41:37.329Z,20.47
2018-10-04T15:43:42.559Z,16.30
2018-10-04T15:45:47.443Z,21.20
2018-10-04T15:47:52.879Z,21.40
2018-10-04T15:49:58.185Z,19.50
2018-10-04T15:52:03.066Z,21.70
2018-10-04T15:54:08.591Z,23.07
2018-10-04T15:56:13.876Z,21.37
2018-10-04T15:58:19.198Z,15.93
2018-10-04T16:00:24.774Z,20.37
2018-10-04T16:02:29.965Z,16.63
2018-10-04T16:04:35.278Z,18.57
2018-10-04T16:06:40.523Z,19.43
2018-10-04T16:08:46.030Z,15.77
2018-10-04T16:10:51.930Z,16.47
2018-10-04T16:12:57.137Z,15.73
2018-10-04T16:15:03.267Z,16.87
2018-10-04T16:17:08.630Z,18.20
2018-10-04T16:19:14.266Z,20.63
2018-10-04T16:21:19.971Z,13.57
2018-10-04T16:23:25.536Z,15.30
2018-10-04T16:25:30.866Z,19.13
2018-10-04T16:27:40.188Z,12.40
2018-10-04T16:29:45.343Z,17.60
2018-10-04T16:31:50.864Z,13.17
2018-10-04T16:33:56.367Z,12.73
2018-10-04T16:36:01.491Z,15.63
2018-10-04T16:38:07.416Z,11.93
2018-10-04T16:40:13.564Z,10.83
2018-10-04T16:42:19.009Z,15.00
2018-10-04T16:44:24.386Z,15.70
2018-10-04T16:46:29.890Z,14.93
2018-10-04T16:48:35.348Z,9.43
2018-10-04T16:50:40.868Z,12.40
2018-10-04T16:52:46.475Z,12.57
2018-10-04T16:54:52.061Z,12.27
2018-10-04T16:56:57.439Z,12.83
2018-10-04T16:59:02.890Z,11.53
2018-10-04T17:01:08.208Z,11.77
2018-10-04T17:03:13.781Z,11.87
2018-10-04T17:05:19.257Z,13.50
2018-10-04T17:07:24.439Z,14.73
2018-10-04T17:09:29.779Z,10.90
2018-10-04T17:11:35.092Z,12.90
2018-10-04T17:13:40.253Z,12.93
2018-10-04T17:15:45.933Z,12.07
2018-10-04T17:17:51.373Z,12.83
2018-10-04T17:19:56.409Z,12.60
2018-10-04T17:22:02.333Z,11.50
2018-10-04T17:24:07.705Z,10.57
2018-10-04T17:26:13.220Z,12.17
2018-10-04T17:28:18.588Z,9.90
2018-10-04T17:30:23.455Z,13.60
2018-10-04T17:32:28.751Z,11.97
2018-10-04T17:34:34.210Z,11.40
2018-10-04T17:36:39.445Z,9.13
2018-10-04T17:38:44.605Z,10.80
2018-10-04T17:40:49.883Z,8.27
2018-10-04T17:42:55.930Z,11.30
2018-10-04T17:45:01.489Z,11.13
2018-10-04T17:47:07.177Z,9.70
2018-10-04T17:49:12.696Z,8.77
2018-10-04T17:51:18.110Z,9.60
2018-10-04T17:53:23.514Z,10.17
2018-10-04T17:55:29.172Z,11.53
2018-10-04T17:57:37.406Z,8.30
2018-10-04T17:59:43.123Z,13.37
2018-10-04T18:01:48.393Z,10.40
2018-10-04T18:03:54.091Z,10.93
2018-10-04T18:05:59.357Z,8.20
2018-10-04T18:08:05.064Z,9.13
2018-10-04T18:10:10.649Z,11.33
2018-10-04T18:12:17.401Z,10.93
2018-10-04T18:14:22.812Z,10.33
2018-10-04T18:16:28.290Z,11.73
2018-10-04T18:18:33.914Z,9.40
2018-10-04T18:20:39.686Z,10.97
2018-10-04T18:22:44.877Z,9.37
2018-10-04T18:24:50.583Z,8.73
2018-10-04T18:26:55.891Z,10.37
2018-10-04T18:29:01.085Z,8.53
2018-10-04T18:31:06.436Z,9.90
2018-10-04T18:33:11.531Z,8.93
2018-10-04T18:35:16.993Z,8.57
2018-10-04T18:37:22.636Z,9.40
2018-10-04T18:39:27.990Z,9.37
2018-10-04T18:41:33.128Z,7.50
2018-10-04T18:43:38.645Z,10.70
2018-10-04T18:45:44.004Z,9.57
2018-10-04T18:47:50.201Z,7.80
2018-10-04T18:49:55.668Z,9.03
2018-10-04T18:52:01.202Z,8.80
2018-10-04T18:54:06.150Z,9.00
2018-10-04T18:56:11.630Z,7.80
2018-10-04T18:58:19.601Z,7.43
2018-10-04T19:00:25.231Z,11.47
2018-10-04T19:02:30.679Z,7.23
2018-10-04T19:04:36.351Z,7.30
2018-10-04T19:06:42.002Z,10.47
2018-10-04T19:08:47.243Z,8.40
2018-10-04T19:10:52.485Z,9.30
2018-10-04T19:12:57.972Z,7.40
2018-10-04T19:15:03.171Z,8.40
2018-10-04T19:17:08.311Z,6.87
2018-10-04T19:19:13.979Z,7.93
2018-10-04T19:21:19.684Z,7.30
2018-10-04T19:23:24.927Z,7.93
2018-10-04T19:25:30.103Z,8.73
2018-10-04T19:27:35.585Z,7.73
2018-10-04T19:29:40.952Z,7.43
2018-10-04T19:31:46.405Z,6.70
2018-10-04T19:33:52.009Z,8.23
2018-10-04T19:36:02.532Z,9.17
2018-10-04T19:38:08.970Z,7.43
2018-10-04T19:40:16.132Z,6.10
2018-10-04T19:42:21.642Z,7.30
2018-10-04T19:44:27.325Z,6.07
2018-10-04T19:46:32.923Z,7.67
2018-10-04T19:48:39.167Z,6.33
2018-10-04T19:50:44.832Z,6.17
2018-10-04T19:52:50.469Z,7.10
2018-10-04T19:54:56.629Z,7.13
2018-10-04T19:57:02.434Z,7.80
2018-10-04T19:59:08.133Z,6.97
2018-10-04T20:01:14.413Z,6.13
2018-10-04T20:03:20.563Z,6.67
2018-10-04T20:05:26.411Z,7.03
2018-10-04T20:07:32.335Z,6.57
2018-10-04T20:09:37.747Z,5.80
2018-10-04T20:11:42.969Z,5.37
2018-10-04T20:13:48.268Z,5.53
2018-10-04T20:15:53.981Z,6.63
2018-10-04T20:17:59.862Z,5.53
2018-10-04T20:20:05.413Z,5.60
2018-10-04T20:22:10.914Z,5.97
2018-10-04T20:24:16.616Z,6.93
2018-10-04T20:26:22.383Z,6.60
2018-10-04T20:28:27.586Z,5.23
2018-10-04T20:30:32.960Z,5.70
2018-10-04T20:32:38.377Z,5.63
2018-10-04T20:34:43.905Z,5.67
2018-10-04T20:36:49.026Z,5.70
2018-10-04T20:42:13.236Z,5.67
2018-10-04T20:44:18.702Z,5.87
2018-10-04T20:46:24.090Z,6.53
2018-10-04T20:48:29.437Z,6.53
2018-10-04T20:50:34.659Z,8.50
2018-10-04T20:52:40.100Z,4.63
2018-10-04T20:54:45.392Z,6.00
2018-10-04T20:56:50.817Z,5.93
2018-10-04T20:58:56.611Z,5.30
2018-10-04T21:01:02.852Z,6.90
2018-10-04T21:03:08.194Z,5.93
2018-10-04T21:05:13.851Z,6.53
2018-10-04T21:07:19.337Z,5.57
2018-10-04T21:09:24.337Z,5.67
2018-10-04T21:11:29.869Z,6.13
2018-10-04T21:13:35.035Z,5.37
2018-10-04T21:15:40.752Z,5.20
2018-10-04T21:17:46.108Z,5.63
2018-10-04T21:19:51.527Z,4.43
2018-10-04T21:21:56.777Z,5.57
2018-10-04T21:24:01.958Z,4.70
2018-10-04T21:26:07.207Z,5.30
2018-10-04T21:28:12.499Z,4.40
2018-10-04T21:30:18.048Z,4.63
2018-10-04T21:32:22.877Z,5.60
2018-10-04T21:34:28.530Z,5.90
2018-10-04T21:36:33.984Z,7.07
2018-10-04T21:38:39.358Z,8.50
2018-10-04T21:40:44.887Z,9.83
2018-10-04T21:42:50.289Z,4.37
2018-10-04T21:44:55.500Z,7.20
2018-10-04T21:47:00.660Z,7.40
2018-10-04T21:49:06.163Z,5.00
2018-10-04T21:51:11.750Z,5.80
2018-10-04T21:53:16.915Z,5.40
2018-10-04T21:55:21.959Z,5.40
2018-10-04T21:57:27.526Z,5.73
2018-10-04T21:59:32.399Z,5.93
2018-10-04T22:01:37.686Z,4.83
2018-10-04T22:03:42.986Z,5.57
2018-10-04T22:05:48.506Z,6.67
2018-10-04T22:07:53.707Z,6.60
2018-10-04T22:10:00.067Z,8.83
2018-10-04T22:12:05.449Z,6.00
2018-10-04T22:14:11.240Z,7.50
2018-10-04T22:16:17.312Z,5.57
2018-10-04T22:18:22.960Z,6.50
2018-10-04T22:20:28.743Z,5.47
2018-10-04T22:22:34.633Z,6.50
2018-10-04T22:24:39.774Z,6.43
2018-10-04T22:26:45.221Z,6.03
2018-10-04T22:28:51.866Z,8.50
2018-10-04T22:30:58.134Z,11.03
2018-10-04T22:33:03.477Z,10.57
2018-10-04T22:35:08.960Z,11.10
2018-10-04T22:37:14.306Z,11.70
2018-10-04T22:39:20.355Z,8.10
2018-10-04T22:41:26.187Z,6.77
2018-10-04T22:43:32.943Z,6.53
2018-10-04T22:45:38.392Z,6.30
2018-10-04T22:47:45.738Z,11.37
2018-10-04T22:49:51.021Z,8.50
2018-10-04T22:51:56.585Z,28.63
2018-10-04T22:54:02.344Z,19.73
2018-10-04T22:56:08.156Z,20.60
2018-10-04T22:58:14.422Z,11.90
2018-10-04T23:00:20.286Z,12.93
2018-10-04T23:02:26.013Z,19.00
2018-10-04T23:04:31.372Z,18.33
2018-10-04T23:06:37.054Z,12.97
2018-10-04T23:08:42.644Z,14.53
2018-10-04T23:10:48.466Z,20.13
2018-10-04T23:12:53.757Z,9.90
2018-10-04T23:15:00.766Z,14.97
2018-10-04T23:17:06.226Z,15.97
2018-10-04T23:19:11.819Z,19.03
2018-10-04T23:21:18.135Z,14.13
2018-10-04T23:23:23.761Z,11.50
2018-10-04T23:25:29.152Z,18.33
2018-10-04T23:27:34.453Z,9.80
2018-10-04T23:29:40.110Z,11.80
2018-10-04T23:31:46.361Z,16.17
2018-10-04T23:33:51.480Z,13.93
2018-10-04T23:35:57.000Z,14.80
2018-10-04T23:38:03.002Z,13.53
2018-10-04T23:40:08.367Z,10.97
2018-10-04T23:42:14.054Z,12.83
2018-10-04T23:44:19.437Z,13.60
2018-10-04T23:46:24.657Z,12.50
2018-10-04T23:48:30.039Z,13.00
2018-10-04T23:50:35.490Z,15.60
2018-10-04T23:52:41.012Z,13.40
2018-10-04T23:54:46.673Z,12.23
2018-10-04T23:56:52.072Z,11.23
2018-10-04T23:58:57.399Z,11.27
